createdAt,value
2022-11-02T00:03:58.896Z,11.20
2022-11-02T00:09:19.454Z,11.00
2022-11-02T00:14:40.149Z,11.09
2022-11-02T00:20:00.801Z,11.36
2022-11-02T00:25:24.268Z,11.47
2022-11-02T00:30:45.351Z,11.58
2022-11-02T00:36:06.407Z,11.49
2022-11-02T00:41:27.439Z,11.31
2022-11-02T00:46:48.005Z,11.38
2022-11-02T00:52:09.419Z,11.47
2022-11-02T00:57:30.215Z,11.52
2022-11-02T01:02:51.202Z,11.46
2022-11-02T01:08:11.881Z,11.44
2022-11-02T01:13:32.563Z,11.51
2022-11-02T01:18:55.246Z,11.65
2022-11-02T01:24:15.715Z,11.68
2022-11-02T01:29:36.416Z,11.59
2022-11-02T01:34:57.100Z,11.70
2022-11-02T01:40:17.920Z,11.70
2022-11-02T01:45:38.923Z,11.63
2022-11-02T01:51:04.805Z,11.54
2022-11-02T01:56:31.200Z,11.39
2022-11-02T02:01:51.920Z,11.15
2022-11-02T02:07:15.042Z,10.94
2022-11-02T02:12:38.910Z,10.83
2022-11-02T02:18:07.845Z,10.67
2022-11-02T02:24:01.490Z,10.61
2022-11-02T02:29:30.502Z,10.64
2022-11-02T02:35:00.936Z,10.63
2022-11-02T02:40:30.773Z,10.63
2022-11-02T02:46:00.744Z,10.75
2022-11-02T02:51:27.873Z,10.65
2022-11-02T02:56:54.949Z,10.76
2022-11-02T03:02:23.263Z,10.79
2022-11-02T03:07:44.445Z,10.72
2022-11-02T03:13:26.447Z,10.68
2022-11-02T03:19:05.917Z,10.47
2022-11-02T03:24:36.424Z,10.48
2022-11-02T03:30:22.812Z,10.69
2022-11-02T03:35:58.230Z,10.79
2022-11-02T03:41:23.470Z,10.80
2022-11-02T03:46:45.976Z,10.89
2022-11-02T03:52:15.900Z,10.89
2022-11-02T03:57:54.982Z,10.92
2022-11-02T04:03:23.454Z,10.99
2022-11-02T04:08:47.522Z,10.95
2022-11-02T04:14:28.109Z,11.05
2022-11-02T04:19:51.253Z,11.19
2022-11-02T04:25:16.502Z,11.19
2022-11-02T04:31:00.793Z,11.20
2022-11-02T04:36:28.963Z,11.19
2022-11-02T04:41:51.058Z,11.32
2022-11-02T04:47:22.896Z,11.37
2022-11-02T04:52:44.557Z,11.24
2022-11-02T04:58:06.660Z,11.24
2022-11-02T05:03:28.046Z,11.21
2022-11-02T05:08:48.857Z,11.28
2022-11-02T05:14:09.780Z,11.28
2022-11-02T05:19:30.993Z,11.18
2022-11-02T05:24:53.565Z,11.19
2022-11-02T05:30:15.077Z,11.00
2022-11-02T05:35:37.853Z,10.89
2022-11-02T05:40:59.917Z,10.82
2022-11-02T05:46:24.577Z,10.73
2022-11-02T05:51:45.206Z,10.65
2022-11-02T05:57:05.792Z,10.56
2022-11-02T06:02:27.036Z,10.68
2022-11-02T06:07:47.683Z,10.59
2022-11-02T06:13:08.338Z,10.66
2022-11-02T06:18:29.368Z,10.70
2022-11-02T06:23:50.846Z,10.50
2022-11-02T06:29:11.423Z,10.57
2022-11-02T06:34:32.026Z,10.46
2022-11-02T06:39:52.579Z,10.34
2022-11-02T06:45:13.747Z,10.39
2022-11-02T06:50:34.653Z,11.19
2022-11-02T06:55:57.244Z,12.24
2022-11-02T07:01:18.375Z,12.17
2022-11-02T07:06:39.641Z,11.70
2022-11-02T07:12:00.378Z,11.34
2022-11-02T07:17:21.075Z,11.21
2022-11-02T07:22:41.974Z,11.06
2022-11-02T07:28:03.698Z,11.06
2022-11-02T07:33:24.797Z,11.04
2022-11-02T07:38:45.362Z,11.07
2022-11-02T07:44:06.646Z,11.19
2022-11-02T07:49:28.736Z,11.20
2022-11-02T07:54:49.589Z,11.08
2022-11-02T08:00:12.029Z,11.79
2022-11-02T08:05:38.740Z,11.85
2022-11-02T08:11:08.270Z,11.73
2022-11-02T08:16:30.534Z,11.76
2022-11-02T08:21:51.564Z,11.78
2022-11-02T08:27:12.209Z,11.93
2022-11-02T08:32:32.961Z,12.09
2022-11-02T08:37:57.902Z,12.12
2022-11-02T08:43:18.536Z,12.20
2022-11-02T08:48:39.217Z,12.26
2022-11-02T08:53:59.912Z,12.26
2022-11-02T08:59:20.599Z,12.27
2022-11-02T09:04:41.332Z,12.32
2022-11-02T09:10:02.532Z,12.34
2022-11-02T09:15:23.376Z,12.47
2022-11-02T09:20:44.294Z,12.74
2022-11-02T09:26:05.296Z,12.79
2022-11-02T09:31:26.179Z,12.84
2022-11-02T09:36:46.912Z,12.79
2022-11-02T09:42:12.963Z,12.70
2022-11-02T09:53:56.524Z,12.80
2022-11-02T09:59:20.191Z,13.05
2022-11-02T10:05:18.650Z,13.32
2022-11-02T10:11:01.026Z,13.43
2022-11-02T10:16:37.120Z,13.62
2022-11-02T10:21:58.750Z,13.74
2022-11-02T10:27:26.728Z,13.82
2022-11-02T10:32:52.870Z,13.77
2022-11-02T10:38:22.754Z,13.80
2022-11-02T10:44:10.111Z,13.68
2022-11-02T10:49:50.414Z,13.63
2022-11-02T10:55:45.827Z,13.67
2022-11-02T11:01:11.624Z,13.70
2022-11-02T11:06:35.545Z,13.76
2022-11-02T11:12:04.641Z,13.86
2022-11-02T11:23:26.669Z,14.39
2022-11-02T11:28:55.979Z,14.57
2022-11-02T11:34:29.563Z,14.72
2022-11-02T11:39:55.041Z,14.76
2022-11-02T11:45:31.117Z,14.62
2022-11-02T11:50:51.906Z,14.36
2022-11-02T11:56:26.268Z,14.26
2022-11-02T12:01:47.680Z,14.25
2022-11-02T12:07:31.995Z,14.09
2022-11-02T12:12:58.915Z,14.00
2022-11-02T12:19:01.335Z,14.10
2022-11-02T12:24:25.255Z,14.16
2022-11-02T12:29:54.879Z,14.19
2022-11-02T12:35:37.691Z,14.11
2022-11-02T12:41:08.535Z,14.17
2022-11-02T12:46:41.346Z,14.18
2022-11-02T12:52:29.334Z,14.09
2022-11-02T12:57:53.733Z,14.05
2022-11-02T13:03:35.878Z,14.05
2022-11-02T13:09:13.277Z,14.07
2022-11-02T13:14:41.062Z,14.13
2022-11-02T13:20:27.455Z,14.24
2022-11-02T13:25:52.503Z,14.26
2022-11-02T13:31:19.537Z,14.20
2022-11-02T13:36:41.001Z,14.19
2022-11-02T13:42:10.269Z,14.33
2022-11-02T13:47:37.252Z,14.35
2022-11-02T13:53:03.146Z,14.25
2022-11-02T13:58:33.293Z,14.15
2022-11-02T14:04:01.914Z,14.12
2022-11-02T14:09:44.669Z,14.08
2022-11-02T14:15:34.679Z,14.02
2022-11-02T14:20:55.987Z,13.94
2022-11-02T14:26:33.569Z,13.85
2022-11-02T14:32:00.256Z,13.74
2022-11-02T14:37:51.416Z,13.76
2022-11-02T14:43:40.262Z,13.77
2022-11-02T14:49:02.995Z,13.70
2022-11-02T14:54:24.162Z,13.63
2022-11-02T14:59:49.954Z,13.62
2022-11-02T15:05:22.886Z,13.56
2022-11-02T15:10:46.006Z,13.48
2022-11-02T15:16:12.733Z,13.34
2022-11-02T15:21:33.568Z,13.29
2022-11-02T15:26:59.581Z,13.21
2022-11-02T15:32:25.943Z,13.23
2022-11-02T15:38:11.225Z,13.11
2022-11-02T15:44:05.434Z,13.01
2022-11-02T15:50:04.631Z,12.90
2022-11-02T15:55:47.451Z,12.85
2022-11-02T16:01:19.328Z,12.79
2022-11-02T16:06:43.218Z,12.69
2022-11-02T16:12:13.117Z,12.67
2022-11-02T16:17:33.748Z,12.72
2022-11-02T16:22:55.547Z,12.64
2022-11-02T16:28:33.568Z,12.54
2022-11-02T16:33:59.936Z,12.51
2022-11-02T16:39:23.173Z,12.41
2022-11-02T16:44:55.363Z,12.37
2022-11-02T16:50:21.610Z,12.96
2022-11-02T16:55:47.601Z,12.80
2022-11-02T17:01:20.848Z,12.54
2022-11-02T17:06:43.742Z,12.35
2022-11-02T17:12:15.309Z,12.25
2022-11-02T17:17:39.697Z,12.19
2022-11-02T17:23:02.648Z,12.13
2022-11-02T17:28:46.356Z,12.03
2022-11-02T17:34:10.274Z,11.93
2022-11-02T17:39:33.689Z,11.87
2022-11-02T17:44:54.432Z,11.78
2022-11-02T17:50:15.140Z,11.73
2022-11-02T17:55:37.410Z,11.75
2022-11-02T18:00:58.276Z,11.75
2022-11-02T18:06:18.949Z,11.71
2022-11-02T18:11:40.159Z,11.78
2022-11-02T18:17:00.867Z,11.68
2022-11-02T18:22:21.526Z,11.53
2022-11-02T18:27:44.029Z,11.48
2022-11-02T18:33:07.375Z,11.46
2022-11-02T18:38:31.695Z,11.46
2022-11-02T18:43:53.349Z,11.39
2022-11-02T18:49:18.065Z,11.37
2022-11-02T18:54:39.012Z,11.19
2022-11-02T19:00:02.474Z,11.21
2022-11-02T19:05:41.924Z,10.98
2022-11-02T19:11:02.656Z,10.78
2022-11-02T19:16:23.271Z,10.64
2022-11-02T19:21:44.090Z,10.57
2022-11-02T19:27:06.476Z,10.44
2022-11-02T19:32:27.583Z,10.43
2022-11-02T19:37:48.592Z,10.28
2022-11-02T19:43:09.522Z,10.19
2022-11-02T19:48:32.091Z,10.11
2022-11-02T19:53:58.498Z,9.97
2022-11-02T19:59:19.574Z,9.72
2022-11-02T20:04:42.575Z,9.67
2022-11-02T20:10:04.049Z,9.79
2022-11-02T20:15:24.697Z,9.79
2022-11-02T20:20:45.268Z,10.09
2022-11-02T20:26:12.459Z,10.15
2022-11-02T20:31:39.181Z,9.88
2022-11-02T20:37:00.217Z,9.75
2022-11-02T20:42:22.097Z,9.95
2022-11-02T20:47:42.818Z,10.02
2022-11-02T20:53:04.802Z,9.88
2022-11-02T20:58:26.511Z,9.59
2022-11-02T21:03:47.427Z,9.44
2022-11-02T21:09:12.022Z,9.39
2022-11-02T21:14:33.227Z,9.44
2022-11-02T21:20:02.777Z,9.42
2022-11-02T21:25:36.460Z,9.29
2022-11-02T21:31:10.833Z,9.25
2022-11-02T21:36:32.658Z,9.11
2022-11-02T21:41:53.542Z,9.02
2022-11-02T21:47:15.346Z,9.11
2022-11-02T21:52:41.056Z,9.10
2022-11-02T21:58:04.957Z,9.01
2022-11-02T22:03:26.065Z,9.03
2022-11-02T22:08:49.440Z,9.05
2022-11-02T22:14:10.528Z,8.97
2022-11-02T22:19:31.287Z,8.77
2022-11-02T22:24:51.935Z,8.70
2022-11-02T22:30:13.091Z,8.69
2022-11-02T22:35:37.831Z,8.88
2022-11-02T22:41:02.616Z,8.86
2022-11-02T22:46:25.174Z,8.76
2022-11-02T22:51:48.104Z,8.82
2022-11-02T22:57:08.967Z,8.64
2022-11-02T23:02:29.814Z,8.53
2022-11-02T23:07:50.392Z,8.26
2022-11-02T23:13:11.304Z,8.15
2022-11-02T23:18:51.916Z,8.28
2022-11-02T23:24:31.299Z,8.32
2022-11-02T23:30:11.146Z,8.28
2022-11-02T23:35:50.269Z,8.14
2022-11-02T23:41:10.844Z,8.13
2022-11-02T23:46:31.427Z,7.91
2022-11-02T23:52:10.523Z,7.94
2022-11-02T23:57:31.243Z,7.81
